Terminal Aerodrome Forecast
Issued by NWS

Home | Current Version | Previous Version | Graphics & Text | Print | Product List | Glossary On
Versions: 1 2 3 4 5 6 7 8 9 10 11 12 13 14 15
973
FTUS43 KMPX 211416 AAA
TAFRWF
TAF AMD
KRWF 211416Z 2114/2212 11006KT P6SM SCT025 BKN200
     FM211700 16006KT P6SM VCTS SCT025CB OVC050
      TEMPO 2118/2120 1/2SM TSRA BKN020CB
     FM212000 29005KT P6SM BKN050
     FM220300 31007KT P6SM SKC=

USA.gov is the U.S. government's official web portal to all federal, state and local government web resources and services.